Wlodawa, Poland

4:19 PM CET on December 21, 2014 (GMT +0100)
Lublin Airport | Change Station
CLOSE
Current Station
Airport
Location: Lublin Airport,
Elevation: 676 ft
Nearby Weather Stations

Elev 676 ft 51.24 °N, 22.71 °E | Updated 19 minutes ago

Mostly Cloudy
Mostly Cloudy
39 °F
Feels Like 31 °F
N
14
Wind Variable Wind from West

Today
High -- | Low -- °F
--% Chance of Precip.
Yesterday
High -- | Low -- °F
Precip. -- in
7:29 AM 3:18 PM
Waning Crescent, 0% visible
Pressure 30.04 in
Visibility 6.2 miles
Clouds Mostly Cloudy 4200 ft
Windchill 31 °F
Dew Point 32 °F
Humidity 75%
Rainfall 0.00 in
Snow Depth Not available.
UV 0 out of 12
Pollen Not available.
Air Quality Not available.
Flu Activity Not available.
METAR EPLB 211500Z 28012KT 9999 BKN042 04/00 Q1017

More Conditions Fewer Conditions

Pressure 30.04 in
Visibility 6.2 miles
Clouds Mostly Cloudy 4200 ft
Windchill 31 °F
Dew Point 32 °F
Humidity 75%
Rainfall 0.00 in
Snow Depth Not available.
UV 0 out of 12
Pollen Not available.
Air Quality Not available.
Flu Activity Not available.
METAR EPLB 211500Z 28012KT 9999 BKN042 04/00 Q1017

More Conditions Fewer Conditions

10-Day Weather Forecast

Almanac

Astronomy

Dec. 21, 2014 Rise Set
Actual Time
Civil Twilight
Nautical Twilight
Astronomical Twilight
Moon
Length of Visible Light
Length of Day
Tomorrow will be .
, % of the Moon is Illuminated

Today's Extremes

Country Highs Country Lows

Community

WunderPhotos

Upload Photos

1,779,408 photos uploaded!

WunderBlogs® & News

Nearby

Air Quality

  Air Quality AQ Index Pollutant
Not available.

Snow Depth

Station Depth Elevation

Earthquake Activity

City Distance Mag. Time & Date
Minimum magnitude displayed is 2.5.

Coastal Water Temperatures

Place Temperature

Nearby Weather Stations